sensor_id;sensor_type;location;lat;lon;timestamp;pressure;altitude;pressure_sealevel;temperature;humidity
49729;BME280;66333;49.798;10.968;2023-01-29T00:01:02;99306.03;;;5.59;62.26
49729;BME280;66333;49.798;10.968;2023-01-29T00:03:30;99294.78;;;5.58;61.85
49729;BME280;66333;49.798;10.968;2023-01-29T00:05:56;99301.03;;;5.56;62.07
49729;BME280;66333;49.798;10.968;2023-01-29T00:08:23;99293.03;;;5.59;62.05
49729;BME280;66333;49.798;10.968;2023-01-29T00:10:50;99284.41;;;5.58;62.17
49729;BME280;66333;49.798;10.968;2023-01-29T00:13:16;99287.00;;;5.58;62.18
49729;BME280;66333;49.798;10.968;2023-01-29T00:15:52;99286.34;;;5.55;62.31
49729;BME280;66333;49.798;10.968;2023-01-29T00:18:18;99294.97;;;5.55;62.13
49729;BME280;66333;49.798;10.968;2023-01-29T00:20:46;99287.25;;;5.54;62.04
49729;BME280;66333;49.798;10.968;2023-01-29T00:23:13;99286.44;;;5.53;62.19
49729;BME280;66333;49.798;10.968;2023-01-29T00:25:39;99287.47;;;5.51;61.92
49729;BME280;66333;49.798;10.968;2023-01-29T00:28:06;99283.84;;;5.53;62.10
49729;BME280;66333;49.798;10.968;2023-01-29T00:30:33;99279.56;;;5.52;62.12
49729;BME280;66333;49.798;10.968;2023-01-29T00:32:59;99289.13;;;5.52;62.12
49729;BME280;66333;49.798;10.968;2023-01-29T00:35:25;99282.16;;;5.52;62.25
49729;BME280;66333;49.798;10.968;2023-01-29T00:37:55;99278.09;;;5.48;62.36
49729;BME280;66333;49.798;10.968;2023-01-29T00:40:21;99278.84;;;5.50;62.12
49729;BME280;66333;49.798;10.968;2023-01-29T00:42:48;99277.16;;;5.49;62.11
49729;BME280;66333;49.798;10.968;2023-01-29T00:45:32;99266.03;;;5.47;62.14
49729;BME280;66333;49.798;10.968;2023-01-29T00:47:58;99264.34;;;5.46;62.25
49729;BME280;66333;49.798;10.968;2023-01-29T00:50:25;99274.75;;;5.46;62.19
49729;BME280;66333;49.798;10.968;2023-01-29T00:52:51;99278.84;;;5.50;62.44
49729;BME280;66333;49.798;10.968;2023-01-29T00:55:20;99273.06;;;5.45;62.11
49729;BME280;66333;49.798;10.968;2023-01-29T00:57:46;99267.03;;;5.45;61.80
49729;BME280;66333;49.798;10.968;2023-01-29T01:00:16;99266.94;;;5.46;62.11
49729;BME280;66333;49.798;10.968;2023-01-29T01:02:43;99252.38;;;5.44;62.15
49729;BME280;66333;49.798;10.968;2023-01-29T01:05:27;99253.22;;;5.44;62.31
49729;BME280;66333;49.798;10.968;2023-01-29T01:07:56;99253.03;;;5.47;62.38
49729;BME280;66333;49.798;10.968;2023-01-29T01:10:26;99249.78;;;5.44;62.29
49729;BME280;66333;49.798;10.968;2023-01-29T01:12:54;99250.63;;;5.44;62.27
49729;BME280;66333;49.798;10.968;2023-01-29T01:15:21;99257.69;;;5.42;62.43
49729;BME280;66333;49.798;10.968;2023-01-29T01:17:51;99256.84;;;5.42;62.04
49729;BME280;66333;49.798;10.968;2023-01-29T01:20:17;99249.88;;;5.42;62.52
49729;BME280;66333;49.798;10.968;2023-01-29T01:22:44;99257.69;;;5.42;62.09
49729;BME280;66333;49.798;10.968;2023-01-29T01:25:10;99271.63;;;5.41;62.45
49729;BME280;66333;49.798;10.968;2023-01-29T01:27:38;99265.59;;;5.41;62.10
49729;BME280;66333;49.798;10.968;2023-01-29T01:30:08;99267.34;;;5.40;62.11
49729;BME280;66333;49.798;10.968;2023-01-29T01:32:35;99269.00;;;5.41;62.24
49729;BME280;66333;49.798;10.968;2023-01-29T01:35:01;99264.75;;;5.40;61.94
49729;BME280;66333;49.798;10.968;2023-01-29T01:37:28;99258.72;;;5.40;62.40
49729;BME280;66333;49.798;10.968;2023-01-29T01:39:54;99261.38;;;5.38;62.17
49729;BME280;66333;49.798;10.968;2023-01-29T01:42:22;99268.28;;;5.39;62.00
49729;BME280;66333;49.798;10.968;2023-01-29T01:44:58;99261.38;;;5.38;62.15
49729;BME280;66333;49.798;10.968;2023-01-29T01:47:31;99261.38;;;5.38;62.13
49729;BME280;66333;49.798;10.968;2023-01-29T01:50:02;99266.59;;;5.38;62.31
49729;BME280;66333;49.798;10.968;2023-01-29T01:52:32;99262.16;;;5.40;62.25
49729;BME280;66333;49.798;10.968;2023-01-29T01:55:01;99259.72;;;5.37;62.43
49729;BME280;66333;49.798;10.968;2023-01-29T01:57:29;99246.00;;;5.35;62.09
49729;BME280;66333;49.798;10.968;2023-01-29T02:00:02;99250.16;;;5.37;62.21
49729;BME280;66333;49.798;10.968;2023-01-29T02:02:34;99248.69;;;5.33;62.23
49729;BME280;66333;49.798;10.968;2023-01-29T02:05:19;99255.66;;;5.33;62.26
49729;BME280;66333;49.798;10.968;2023-01-29T02:08:03;99251.41;;;5.32;62.27
49729;BME280;66333;49.798;10.968;2023-01-29T02:10:48;99247.13;;;5.31;62.33
49729;BME280;66333;49.798;10.968;2023-01-29T02:13:15;99245.25;;;5.33;62.23
49729;BME280;66333;49.798;10.968;2023-01-29T02:15:43;99231.53;;;5.31;62.06
49729;BME280;66333;49.798;10.968;2023-01-29T02:18:13;99234.13;;;5.31;62.14
49729;BME280;66333;49.798;10.968;2023-01-29T02:20:41;99237.66;;;5.30;62.20
49729;BME280;66333;49.798;10.968;2023-01-29T02:23:30;99239.34;;;5.31;62.02
49729;BME280;66333;49.798;10.968;2023-01-29T02:26:14;99234.13;;;5.31;62.16
49729;BME280;66333;49.798;10.968;2023-01-29T02:28:50;99238.56;;;5.29;61.99
49729;BME280;66333;49.798;10.968;2023-01-29T02:31:26;99235.06;;;5.30;62.12
49729;BME280;66333;49.798;10.968;2023-01-29T02:34:12;99241.00;;;5.32;62.30
49729;BME280;66333;49.798;10.968;2023-01-29T02:36:48;99233.38;;;5.29;62.71
49729;BME280;66333;49.798;10.968;2023-01-29T02:39:20;99242.09;;;5.28;62.28
49729;BME280;66333;49.798;10.968;2023-01-29T02:41:55;99241.38;;;5.26;62.41
49729;BME280;66333;49.798;10.968;2023-01-29T02:44:30;99242.09;;;5.28;62.32
49729;BME280;66333;49.798;10.968;2023-01-29T02:47:03;99242.19;;;5.26;62.13
49729;BME280;66333;49.798;10.968;2023-01-29T02:49:33;99235.25;;;5.27;62.31
49729;BME280;66333;49.798;10.968;2023-01-29T02:52:04;99230.97;;;5.26;62.41
49729;BME280;66333;49.798;10.968;2023-01-29T02:54:40;99235.34;;;5.25;62.23
49729;BME280;66333;49.798;10.968;2023-01-29T02:57:15;99234.50;;;5.25;62.36
49729;BME280;66333;49.798;10.968;2023-01-29T02:59:48;99232.84;;;5.24;62.09
49729;BME280;66333;49.798;10.968;2023-01-29T03:02:19;99233.69;;;5.24;62.37
49729;BME280;66333;49.798;10.968;2023-01-29T03:04:52;99234.72;;;5.22;62.54
49729;BME280;66333;49.798;10.968;2023-01-29T03:07:24;99240.53;;;5.25;62.36
49729;BME280;66333;49.798;10.968;2023-01-29T03:10:11;99236.19;;;5.26;62.36
49729;BME280;66333;49.798;10.968;2023-01-29T03:12:40;99234.72;;;5.22;62.30
49729;BME280;66333;49.798;10.968;2023-01-29T03:15:10;99236.53;;;5.20;62.03
49729;BME280;66333;49.798;10.968;2023-01-29T03:17:43;99236.38;;;5.23;62.28
49729;BME280;66333;49.798;10.968;2023-01-29T03:20:17;99244.28;;;5.21;62.25
49729;BME280;66333;49.798;10.968;2023-01-29T03:22:49;99236.38;;;5.23;62.47
49729;BME280;66333;49.798;10.968;2023-01-29T03:25:19;99245.09;;;5.22;62.61
49729;BME280;66333;49.798;10.968;2023-01-29T03:28:05;99257.31;;;5.20;62.18
49729;BME280;66333;49.798;10.968;2023-01-29T03:30:53;99251.28;;;5.19;62.38
49729;BME280;66333;49.798;10.968;2023-01-29T03:33:42;99249.38;;;5.23;62.44
49729;BME280;66333;49.798;10.968;2023-01-29T03:36:15;99260.84;;;5.19;62.24
49729;BME280;66333;49.798;10.968;2023-01-29T03:38:44;99247.03;;;5.18;62.16
49729;BME280;66333;49.798;10.968;2023-01-29T03:41:17;99250.47;;;5.19;62.50
49729;BME280;66333;49.798;10.968;2023-01-29T03:43:50;99255.66;;;5.19;62.14
49729;BME280;66333;49.798;10.968;2023-01-29T03:46:24;99260.84;;;5.19;62.30
49729;BME280;66333;49.798;10.968;2023-01-29T03:48:58;99266.06;;;5.19;62.47
49729;BME280;66333;49.798;10.968;2023-01-29T03:51:29;99279.97;;;5.18;62.60
49729;BME280;66333;49.798;10.968;2023-01-29T03:54:04;99276.66;;;5.16;62.36
49729;BME280;66333;49.798;10.968;2023-01-29T03:56:41;99287.03;;;5.16;62.15
49729;BME280;66333;49.798;10.968;2023-01-29T03:59:17;99274.97;;;5.15;62.60
49729;BME280;66333;49.798;10.968;2023-01-29T04:01:50;99276.66;;;5.16;62.55
49729;BME280;66333;49.798;10.968;2023-01-29T04:04:22;99281.84;;;5.16;62.12
49729;BME280;66333;49.798;10.968;2023-01-29T04:06:51;99276.66;;;5.16;62.28
49729;BME280;66333;49.798;10.968;2023-01-29T04:09:26;99271.44;;;5.16;62.25
49729;BME280;66333;49.798;10.968;2023-01-29T04:12:00;99268.94;;;5.14;62.22
49729;BME280;66333;49.798;10.968;2023-01-29T04:14:27;99280.34;;;5.12;62.04
49729;BME280;66333;49.798;10.968;2023-01-29T04:16:59;99282.00;;;5.13;62.16
49729;BME280;66333;49.798;10.968;2023-01-29T04:19:27;99279.41;;;5.13;61.83
49729;BME280;66333;49.798;10.968;2023-01-29T04:22:00;99278.66;;;5.10;62.13
49729;BME280;66333;49.798;10.968;2023-01-29T04:24:29;99279.50;;;5.11;62.16
49729;BME280;66333;49.798;10.968;2023-01-29T04:27:04;99272.66;;;5.10;62.33
49729;BME280;66333;49.798;10.968;2023-01-29T04:29:39;99274.31;;;5.11;62.10
49729;BME280;66333;49.798;10.968;2023-01-29T04:32:15;99269.00;;;5.13;62.03
49729;BME280;66333;49.798;10.968;2023-01-29T04:34:53;99265.69;;;5.10;62.10
49729;BME280;66333;49.798;10.968;2023-01-29T04:37:31;99266.41;;;5.13;61.82
49729;BME280;66333;49.798;10.968;2023-01-29T04:40:10;99259.56;;;5.12;62.26
49729;BME280;66333;49.798;10.968;2023-01-29T04:42:43;99251.88;;;5.10;61.89
49729;BME280;66333;49.798;10.968;2023-01-29T04:45:18;99252.78;;;5.09;62.38
49729;BME280;66333;49.798;10.968;2023-01-29T04:47:58;99246.66;;;5.10;62.40
49729;BME280;66333;49.798;10.968;2023-01-29T04:50:29;99240.63;;;5.09;62.35
49729;BME280;66333;49.798;10.968;2023-01-29T04:53:03;99237.31;;;5.07;62.35
49729;BME280;66333;49.798;10.968;2023-01-29T04:55:38;99237.09;;;5.10;62.15
49729;BME280;66333;49.798;10.968;2023-01-29T04:58:10;99235.44;;;5.09;62.06
49729;BME280;66333;49.798;10.968;2023-01-29T05:00:40;99247.91;;;5.04;62.33
49729;BME280;66333;49.798;10.968;2023-01-29T05:03:09;99237.31;;;5.07;62.32
49729;BME280;66333;49.798;10.968;2023-01-29T05:05:39;99231.91;;;5.10;61.90
49729;BME280;66333;49.798;10.968;2023-01-29T05:08:07;99240.84;;;5.06;62.13
49729;BME280;66333;49.798;10.968;2023-01-29T05:10:34;99225.25;;;5.06;62.10
49729;BME280;66333;49.798;10.968;2023-01-29T05:13:03;99220.06;;;5.06;62.20
49729;BME280;66333;49.798;10.968;2023-01-29T05:15:34;99220.06;;;5.06;62.07
49729;BME280;66333;49.798;10.968;2023-01-29T05:18:03;99211.53;;;5.04;62.25
49729;BME280;66333;49.798;10.968;2023-01-29T05:20:35;99213.19;;;5.05;62.42
49729;BME280;66333;49.798;10.968;2023-01-29T05:23:03;99199.44;;;5.03;62.12
49729;BME280;66333;49.798;10.968;2023-01-29T05:25:31;99193.34;;;5.04;62.20
49729;BME280;66333;49.798;10.968;2023-01-29T05:27:58;99190.00;;;5.02;62.28
49729;BME280;66333;49.798;10.968;2023-01-29T05:30:35;99178.66;;;5.03;62.05
49729;BME280;66333;49.798;10.968;2023-01-29T05:33:03;99182.19;;;5.02;62.29
49729;BME280;66333;49.798;10.968;2023-01-29T05:35:30;99184.78;;;5.02;62.41
49729;BME280;66333;49.798;10.968;2023-01-29T05:37:58;99183.13;;;5.01;61.85
49729;BME280;66333;49.798;10.968;2023-01-29T05:40:25;99190.75;;;5.04;62.02
49729;BME280;66333;49.798;10.968;2023-01-29T05:42:51;99192.41;;;5.05;62.18
49729;BME280;66333;49.798;10.968;2023-01-29T05:45:18;99196.84;;;5.03;61.83
49729;BME280;66333;49.798;10.968;2023-01-29T05:47:45;99194.25;;;5.03;61.83
49729;BME280;66333;49.798;10.968;2023-01-29T05:50:13;99202.03;;;5.03;62.00
49729;BME280;66333;49.798;10.968;2023-01-29T05:52:40;99201.31;;;5.01;61.98
49729;BME280;66333;49.798;10.968;2023-01-29T05:55:09;99209.84;;;5.03;61.95
49729;BME280;66333;49.798;10.968;2023-01-29T05:57:36;99214.31;;;5.01;61.84
49729;BME280;66333;49.798;10.968;2023-01-29T06:00:03;99201.50;;;4.98;61.87
49729;BME280;66333;49.798;10.968;2023-01-29T06:02:30;99206.50;;;5.01;62.26
49729;BME280;66333;49.798;10.968;2023-01-29T06:04:57;99215.03;;;5.03;62.12
49729;BME280;66333;49.798;10.968;2023-01-29T06:07:23;99223.75;;;5.02;62.25
49729;BME280;66333;49.798;10.968;2023-01-29T06:09:49;99223.75;;;5.02;62.16
49729;BME280;66333;49.798;10.968;2023-01-29T06:12:17;99219.50;;;5.01;62.32
49729;BME280;66333;49.798;10.968;2023-01-29T06:14:44;99219.59;;;5.00;61.88
49729;BME280;66333;49.798;10.968;2023-01-29T06:17:10;99210.03;;;5.00;61.93
49729;BME280;66333;49.798;10.968;2023-01-29T06:19:36;99217.09;;;4.98;62.21
49729;BME280;66333;49.798;10.968;2023-01-29T06:22:03;99221.34;;;4.99;62.14
49729;BME280;66333;49.798;10.968;2023-01-29T06:24:30;99231.75;;;4.99;62.22
49729;BME280;66333;49.798;10.968;2023-01-29T06:26:57;99228.41;;;4.97;62.26
49729;BME280;66333;49.798;10.968;2023-01-29T06:29:25;99228.56;;;4.94;62.10
49729;BME280;66333;49.798;10.968;2023-01-29T06:31:51;99231.13;;;4.96;61.69
49729;BME280;66333;49.798;10.968;2023-01-29T06:34:17;99242.13;;;4.99;61.88
49729;BME280;66333;49.798;10.968;2023-01-29T06:36:44;99229.16;;;4.99;62.10
49729;BME280;66333;49.798;10.968;2023-01-29T06:39:10;99228.50;;;4.96;62.20
49729;BME280;66333;49.798;10.968;2023-01-29T06:41:37;99236.38;;;4.94;62.18
49729;BME280;66333;49.798;10.968;2023-01-29T06:44:04;99228.50;;;4.96;61.96
49729;BME280;66333;49.798;10.968;2023-01-29T06:46:31;99231.84;;;4.98;61.95
49729;BME280;66333;49.798;10.968;2023-01-29T06:48:58;99243.06;;;4.98;61.55
49729;BME280;66333;49.798;10.968;2023-01-29T06:51:25;99234.53;;;4.96;61.88
49729;BME280;66333;49.798;10.968;2023-01-29T06:53:52;99238.97;;;4.94;62.08
49729;BME280;66333;49.798;10.968;2023-01-29T06:56:20;99237.41;;;4.92;62.18
49729;BME280;66333;49.798;10.968;2023-01-29T06:58:46;99238.97;;;4.94;62.14
49729;BME280;66333;49.798;10.968;2023-01-29T07:01:13;99234.72;;;4.93;61.82
49729;BME280;66333;49.798;10.968;2023-01-29T07:03:41;99230.44;;;4.92;62.16
49729;BME280;66333;49.798;10.968;2023-01-29T07:06:08;99219.97;;;4.94;61.96
49729;BME280;66333;49.798;10.968;2023-01-29T07:08:35;99227.84;;;4.92;62.22
49729;BME280;66333;49.798;10.968;2023-01-29T07:11:02;99215.78;;;4.91;61.84
49729;BME280;66333;49.798;10.968;2023-01-29T07:13:29;99216.63;;;4.92;61.96
49729;BME280;66333;49.798;10.968;2023-01-29T07:15:57;99220.78;;;4.94;61.84
49729;BME280;66333;49.798;10.968;2023-01-29T07:18:24;99227.84;;;4.92;61.75
49729;BME280;66333;49.798;10.968;2023-01-29T07:20:52;99219.13;;;4.93;62.00
49729;BME280;66333;49.798;10.968;2023-01-29T07:23:18;99236.38;;;4.94;61.99
49729;BME280;66333;49.798;10.968;2023-01-29T07:25:45;99241.56;;;4.94;62.19
49729;BME280;66333;49.798;10.968;2023-01-29T07:28:14;99244.19;;;4.80;58.25
49729;BME280;66333;49.798;10.968;2023-01-29T07:30:40;99238.97;;;4.80;59.34
49729;BME280;66333;49.798;10.968;2023-01-29T07:33:08;99244.09;;;4.81;60.29
49729;BME280;66333;49.798;10.968;2023-01-29T07:35:36;99243.25;;;4.81;60.32
49729;BME280;66333;49.798;10.968;2023-01-29T07:38:04;99248.59;;;4.78;60.55
49729;BME280;66333;49.798;10.968;2023-01-29T07:40:31;99252.91;;;4.79;58.73
49729;BME280;66333;49.798;10.968;2023-01-29T07:42:58;99253.06;;;4.90;58.80
49729;BME280;66333;49.798;10.968;2023-01-29T07:45:24;99255.31;;;4.96;59.23
49729;BME280;66333;49.798;10.968;2023-01-29T07:47:51;99259.94;;;5.05;59.45
49729;BME280;66333;49.798;10.968;2023-01-29T07:50:18;99260.59;;;5.09;59.71
49729;BME280;66333;49.798;10.968;2023-01-29T07:52:45;99258.09;;;5.07;60.10
49729;BME280;66333;49.798;10.968;2023-01-29T07:55:13;99252.53;;;5.14;59.69
49729;BME280;66333;49.798;10.968;2023-01-29T07:57:39;99243.03;;;5.13;59.74
49729;BME280;66333;49.798;10.968;2023-01-29T08:00:07;99250.66;;;5.16;59.90
49729;BME280;66333;49.798;10.968;2023-01-29T08:02:34;99242.66;;;5.19;60.22
49729;BME280;66333;49.798;10.968;2023-01-29T08:05:00;99244.28;;;5.21;59.86
49729;BME280;66333;49.798;10.968;2023-01-29T08:07:27;99233.00;;;5.21;60.06
49729;BME280;66333;49.798;10.968;2023-01-29T08:09:53;99238.97;;;5.23;60.26
49729;BME280;66333;49.798;10.968;2023-01-29T08:12:21;99237.22;;;5.23;60.07
49729;BME280;66333;49.798;10.968;2023-01-29T08:14:48;99243.25;;;5.24;60.40
49729;BME280;66333;49.798;10.968;2023-01-29T08:17:15;99241.56;;;5.23;60.17
49729;BME280;66333;49.798;10.968;2023-01-29T08:19:41;99247.41;;;5.26;60.46
49729;BME280;66333;49.798;10.968;2023-01-29T08:22:08;99255.19;;;5.26;60.45
49729;BME280;66333;49.798;10.968;2023-01-29T08:24:34;99264.66;;;5.27;60.19
49729;BME280;66333;49.798;10.968;2023-01-29T08:27:01;99272.56;;;5.26;60.11
49729;BME280;66333;49.798;10.968;2023-01-29T08:29:28;99278.69;;;5.25;60.43
49729;BME280;66333;49.798;10.968;2023-01-29T08:31:55;99286.38;;;5.26;60.32
49729;BME280;66333;49.798;10.968;2023-01-29T08:34:21;99286.47;;;5.25;60.37
49729;BME280;66333;49.798;10.968;2023-01-29T08:36:48;99286.47;;;5.25;60.71
49729;BME280;66333;49.798;10.968;2023-01-29T08:39:14;99289.81;;;5.27;60.42
49729;BME280;66333;49.798;10.968;2023-01-29T08:41:40;99289.81;;;5.27;60.80
49729;BME280;66333;49.798;10.968;2023-01-29T08:44:07;99288.13;;;5.26;60.55
49729;BME280;66333;49.798;10.968;2023-01-29T08:46:35;99283.78;;;5.26;60.61
49729;BME280;66333;49.798;10.968;2023-01-29T08:49:04;99285.44;;;5.27;60.64
49729;BME280;66333;49.798;10.968;2023-01-29T08:51:31;99296.75;;;5.26;60.72
49729;BME280;66333;49.798;10.968;2023-01-29T08:53:57;99305.41;;;5.27;60.57
49729;BME280;66333;49.798;10.968;2023-01-29T08:56:24;99305.41;;;5.27;60.72
49729;BME280;66333;49.798;10.968;2023-01-29T08:58:51;99295.66;;;5.30;60.94
49729;BME280;66333;49.798;10.968;2023-01-29T09:01:17;99297.97;;;5.35;60.88
49729;BME280;66333;49.798;10.968;2023-01-29T09:03:45;99298.25;;;5.30;60.96
49729;BME280;66333;49.798;10.968;2023-01-29T09:06:12;99295.75;;;5.29;61.09
49729;BME280;66333;49.798;10.968;2023-01-29T09:08:40;99296.66;;;5.28;60.70
49729;BME280;66333;49.798;10.968;2023-01-29T09:11:06;99291.47;;;5.28;60.63
49729;BME280;66333;49.798;10.968;2023-01-29T09:13:33;99282.94;;;5.26;60.96
49729;BME280;66333;49.798;10.968;2023-01-29T09:16:00;99285.53;;;5.26;61.04
49729;BME280;66333;49.798;10.968;2023-01-29T09:18:27;99279.41;;;5.27;61.12
49729;BME280;66333;49.798;10.968;2023-01-29T09:20:55;99279.50;;;5.25;61.17
49729;BME280;66333;49.798;10.968;2023-01-29T09:23:22;99282.94;;;5.26;60.98
49729;BME280;66333;49.798;10.968;2023-01-29T09:25:48;99274.22;;;5.27;61.15
49729;BME280;66333;49.798;10.968;2023-01-29T09:28:15;99260.28;;;5.28;61.29
49729;BME280;66333;49.798;10.968;2023-01-29T09:30:42;99249.06;;;5.27;61.55
49729;BME280;66333;49.798;10.968;2023-01-29T09:33:09;99246.38;;;5.29;61.08
49729;BME280;66333;49.798;10.968;2023-01-29T09:35:36;99242.88;;;5.30;61.39
49729;BME280;66333;49.798;10.968;2023-01-29T09:38:03;99239.50;;;5.28;61.13
49729;BME280;66333;49.798;10.968;2023-01-29T09:40:34;99225.59;;;5.29;61.18
49729;BME280;66333;49.798;10.968;2023-01-29T09:43:06;99232.47;;;5.30;61.18
49729;BME280;66333;49.798;10.968;2023-01-29T09:45:37;99244.53;;;5.31;61.33
49729;BME280;66333;49.798;10.968;2023-01-29T09:48:10;99252.22;;;5.32;61.18
49729;BME280;66333;49.798;10.968;2023-01-29T09:50:40;99260.28;;;5.83;62.40
49729;BME280;66333;49.798;10.968;2023-01-29T09:53:16;99267.63;;;5.77;60.53
49729;BME280;66333;49.798;10.968;2023-01-29T09:55:48;99273.41;;;5.68;60.71
49729;BME280;66333;49.798;10.968;2023-01-29T09:58:19;99265.47;;;5.56;61.18
49729;BME280;66333;49.798;10.968;2023-01-29T10:00:53;99270.22;;;5.50;61.49
49729;BME280;66333;49.798;10.968;2023-01-29T10:03:42;99284.41;;;5.44;61.90
49729;BME280;66333;49.798;10.968;2023-01-29T10:06:24;99289.72;;;5.43;61.57
49729;BME280;66333;49.798;10.968;2023-01-29T10:09:12;99282.00;;;5.41;61.85
49729;BME280;66333;49.798;10.968;2023-01-29T10:11:50;99294.28;;;5.39;61.89
49729;BME280;66333;49.798;10.968;2023-01-29T10:14:24;99295.94;;;5.40;61.83
49729;BME280;66333;49.798;10.968;2023-01-29T10:17:02;99311.69;;;5.37;61.75
49729;BME280;66333;49.798;10.968;2023-01-29T10:19:47;99308.72;;;5.43;61.49
49729;BME280;66333;49.798;10.968;2023-01-29T10:22:38;99302.59;;;5.44;61.55
49729;BME280;66333;49.798;10.968;2023-01-29T10:25:12;99290.53;;;5.43;61.73
49729;BME280;66333;49.798;10.968;2023-01-29T10:27:40;99281.28;;;5.39;61.80
49729;BME280;66333;49.798;10.968;2023-01-29T10:30:20;99273.66;;;5.36;61.91
49729;BME280;66333;49.798;10.968;2023-01-29T10:32:50;99262.53;;;5.34;61.94
49729;BME280;66333;49.798;10.968;2023-01-29T10:35:22;99253.06;;;5.33;61.74
49729;BME280;66333;49.798;10.968;2023-01-29T10:37:51;99260.84;;;5.33;61.98
49729;BME280;66333;49.798;10.968;2023-01-29T10:40:22;99259.72;;;5.37;61.96
49729;BME280;66333;49.798;10.968;2023-01-29T10:42:53;99241.00;;;5.32;61.81
49729;BME280;66333;49.798;10.968;2023-01-29T10:45:29;99241.09;;;5.30;61.72
49729;BME280;66333;49.798;10.968;2023-01-29T10:48:30;99239.41;;;5.29;61.95
49729;BME280;66333;49.798;10.968;2023-01-29T10:51:07;99240.34;;;5.28;61.62
49729;BME280;66333;49.798;10.968;2023-01-29T10:53:46;99235.97;;;5.29;61.90
49729;BME280;66333;49.798;10.968;2023-01-29T10:56:25;99232.66;;;5.27;61.88
49729;BME280;66333;49.798;10.968;2023-01-29T10:58:58;99227.44;;;5.27;61.98
49729;BME280;66333;49.798;10.968;2023-01-29T11:01:28;99225.78;;;5.26;62.06
49729;BME280;66333;49.798;10.968;2023-01-29T11:03:58;99213.63;;;5.26;61.89
49729;BME280;66333;49.798;10.968;2023-01-29T11:06:29;99214.47;;;5.27;61.74
49729;BME280;66333;49.798;10.968;2023-01-29T11:09:02;99211.84;;;5.27;61.56
49729;BME280;66333;49.798;10.968;2023-01-29T11:11:37;99211.13;;;5.25;61.69
49729;BME280;66333;49.798;10.968;2023-01-29T11:14:07;99205.00;;;5.26;61.91
49729;BME280;66333;49.798;10.968;2023-01-29T11:16:40;99204.16;;;5.25;61.93
49729;BME280;66333;49.798;10.968;2023-01-29T11:19:07;99186.91;;;5.24;61.69
49729;BME280;66333;49.798;10.968;2023-01-29T11:21:49;99180.88;;;5.24;61.74
49729;BME280;66333;49.798;10.968;2023-01-29T11:24:16;99173.19;;;5.22;61.79
49729;BME280;66333;49.798;10.968;2023-01-29T11:26:46;99180.88;;;5.24;61.54
49729;BME280;66333;49.798;10.968;2023-01-29T11:29:29;99170.50;;;5.24;61.90
49729;BME280;66333;49.798;10.968;2023-01-29T11:31:57;99165.28;;;5.24;61.83
49729;BME280;66333;49.798;10.968;2023-01-29T11:34:25;99160.09;;;5.24;61.70
49729;BME280;66333;49.798;10.968;2023-01-29T11:36:56;99146.28;;;5.23;61.79
49729;BME280;66333;49.798;10.968;2023-01-29T11:39:24;99146.38;;;5.22;61.71
49729;BME280;66333;49.798;10.968;2023-01-29T11:41:55;99141.19;;;5.22;61.85
49729;BME280;66333;49.798;10.968;2023-01-29T11:44:27;99137.66;;;5.23;61.50
49729;BME280;66333;49.798;10.968;2023-01-29T11:46:54;99130.59;;;5.25;61.41
49729;BME280;66333;49.798;10.968;2023-01-29T11:49:27;99123.72;;;5.24;61.62
49729;BME280;66333;49.798;10.968;2023-01-29T11:51:55;99130.59;;;5.25;61.60
49729;BME280;66333;49.798;10.968;2023-01-29T11:54:28;99117.81;;;5.22;61.68
49729;BME280;66333;49.798;10.968;2023-01-29T11:56:57;99116.88;;;5.23;61.78
49729;BME280;66333;49.798;10.968;2023-01-29T11:59:29;99113.34;;;5.24;61.86
49729;BME280;66333;49.798;10.968;2023-01-29T12:02:03;99114.28;;;5.23;61.80
49729;BME280;66333;49.798;10.968;2023-01-29T12:04:31;99111.66;;;5.23;61.54
49729;BME280;66333;49.798;10.968;2023-01-29T12:06:57;99106.47;;;5.23;61.95
49729;BME280;66333;49.798;10.968;2023-01-29T12:09:25;99112.50;;;5.23;61.38
49729;BME280;66333;49.798;10.968;2023-01-29T12:11:53;99103.88;;;5.23;61.67
49729;BME280;66333;49.798;10.968;2023-01-29T12:14:26;99102.09;;;5.23;61.68
49729;BME280;66333;49.798;10.968;2023-01-29T12:16:57;99101.13;;;5.38;61.42
49729;BME280;66333;49.798;10.968;2023-01-29T12:19:30;99089.75;;;5.27;58.20
49729;BME280;66333;49.798;10.968;2023-01-29T12:22:03;99085.00;;;5.86;59.26
49729;BME280;66333;49.798;10.968;2023-01-29T12:24:33;99076.00;;;5.52;51.71
49729;BME280;66333;49.798;10.968;2023-01-29T12:27:06;99071.38;;;5.30;51.10
49729;BME280;66333;49.798;10.968;2023-01-29T12:29:43;99072.53;;;5.12;49.85
49729;BME280;66333;49.798;10.968;2023-01-29T12:32:22;99073.13;;;5.02;49.98
49729;BME280;66333;49.798;10.968;2023-01-29T12:34:55;99076.03;;;4.98;49.80
49729;BME280;66333;49.798;10.968;2023-01-29T12:37:31;99070.19;;;4.94;49.41
49729;BME280;66333;49.798;10.968;2023-01-29T12:40:00;99063.53;;;4.90;50.59
49729;BME280;66333;49.798;10.968;2023-01-29T12:42:27;99056.25;;;4.95;52.01
49729;BME280;66333;49.798;10.968;2023-01-29T12:44:58;99057.75;;;4.99;53.96
49729;BME280;66333;49.798;10.968;2023-01-29T12:47:30;99039.06;;;5.07;55.62
49729;BME280;66333;49.798;10.968;2023-01-29T12:50:02;99039.06;;;5.07;54.33
49729;BME280;66333;49.798;10.968;2023-01-29T12:52:37;99034.72;;;5.07;53.91
49729;BME280;66333;49.798;10.968;2023-01-29T12:55:10;99023.50;;;5.07;54.85
49729;BME280;66333;49.798;10.968;2023-01-29T12:57:42;99024.44;;;5.06;55.49
49729;BME280;66333;49.798;10.968;2023-01-29T13:00:15;99029.53;;;5.07;56.20
49729;BME280;66333;49.798;10.968;2023-01-29T13:02:47;99027.03;;;5.06;56.61
49729;BME280;66333;49.798;10.968;2023-01-29T13:05:18;99032.22;;;5.06;56.74
49729;BME280;66333;49.798;10.968;2023-01-29T13:07:51;99033.16;;;5.05;57.30
49729;BME280;66333;49.798;10.968;2023-01-29T13:10:22;99029.72;;;5.04;57.50
49729;BME280;66333;49.798;10.968;2023-01-29T13:12:54;99026.19;;;5.05;57.54
49729;BME280;66333;49.798;10.968;2023-01-29T13:15:28;99022.84;;;5.03;57.98
49729;BME280;66333;49.798;10.968;2023-01-29T13:18:13;99015.81;;;5.05;58.15